Time;durP1;ratioP1;P1;durP2;ratioP2;P2;SDS_P1;SDS_P2;PMS_P1;PMS_P2;Temp;Humidity;BMP_temperature;BMP_pressure;BME280_temperature;BME280_humidity;BME280_pressure;Samples;Min_cycle;Max_cycle;Signal;HPM_P1;HPM_P2
2022/10/05 00:00:56;;;;;;;6.07;4.57;;;11.80;99.90;;;;;;4993340;28;20460;-73
2022/10/05 00:03:25;;;;;;;6.20;4.03;;;11.80;99.90;;;;;;4993333;28;20408;-73
2022/10/05 00:05:51;;;;;;;4.47;3.73;;;11.70;99.90;;;;;;4992947;28;20512;-73
2022/10/05 00:08:22;;;;;;;4.00;3.23;;;11.70;99.90;;;;;;4993208;28;20440;-73
2022/10/05 00:10:48;;;;;;;6.50;3.70;;;11.70;99.90;;;;;;4993203;28;20491;-73
2022/10/05 00:13:23;;;;;;;5.17;3.10;;;11.60;99.90;;;;;;4993121;28;20522;-73
2022/10/05 00:15:49;;;;;;;6.50;3.47;;;11.60;99.90;;;;;;4992609;28;20420;-73
2022/10/05 00:18:20;;;;;;;6.53;4.00;;;11.50;99.90;;;;;;4993113;28;20416;-73
2022/10/05 00:20:47;;;;;;;3.97;3.47;;;11.40;99.90;;;;;;4993261;28;20473;-75
2022/10/05 00:23:39;;;;;;;5.57;4.30;;;11.40;99.90;;;;;;4993613;28;20408;-74
2022/10/05 00:26:21;;;;;;;4.10;3.20;;;11.40;99.90;;;;;;4993008;28;20427;-75
2022/10/05 00:28:47;;;;;;;7.00;4.23;;;11.40;99.90;;;;;;4993180;28;20400;-74
2022/10/05 00:31:22;;;;;;;4.43;3.47;;;11.30;99.90;;;;;;4993551;28;20412;-73
2022/10/05 00:33:48;;;;;;;6.07;3.90;;;11.30;99.90;;;;;;4992852;28;20403;-73
2022/10/05 00:36:14;;;;;;;6.67;3.57;;;11.30;99.90;;;;;;4992394;28;20431;-74
2022/10/05 00:38:41;;;;;;;11.10;4.67;;;11.30;99.90;;;;;;4992844;28;20411;-74
2022/10/05 00:41:26;;;;;;;6.23;4.30;;;11.20;99.90;;;;;;4992714;28;20200;-74
2022/10/05 00:44:15;;;;;;;8.73;3.70;;;11.20;99.90;;;;;;4993156;28;20482;-75
2022/10/05 00:47:15;;;;;;;11.50;3.57;;;11.10;99.90;;;;;;4992803;28;20969;-73
2022/10/05 00:49:52;;;;;;;9.33;4.00;;;11.10;99.90;;;;;;4991359;28;20951;-73
2022/10/05 00:52:30;;;;;;;10.40;4.40;;;11.00;99.90;;;;;;4992621;28;20416;-73
2022/10/05 00:55:14;;;;;;;4.97;3.67;;;11.00;99.90;;;;;;4991209;28;20788;-73
2022/10/05 00:57:47;;;;;;;18.93;4.43;;;11.00;99.90;;;;;;4992551;28;20443;-73
2022/10/05 01:00:17;;;;;;;6.33;4.30;;;10.90;99.90;;;;;;4993187;28;20452;-75
2022/10/05 01:03:03;;;;;;;9.00;4.90;;;10.90;99.90;;;;;;4992794;28;20571;-74
2022/10/05 01:06:03;;;;;;;6.27;4.60;;;10.90;99.90;;;;;;4992273;28;20747;-74
2022/10/05 01:08:51;;;;;;;6.00;4.13;;;10.80;99.90;;;;;;4992135;28;20813;-73
2022/10/05 01:11:39;;;;;;;4.53;4.10;;;10.70;99.90;;;;;;4992460;28;20466;-73
2022/10/05 01:14:13;;;;;;;5.63;4.10;;;10.70;99.90;;;;;;4991277;28;20466;-73
2022/10/05 01:17:05;;;;;;;3.40;2.90;;;10.70;99.90;;;;;;4992196;28;20458;-73
2022/10/05 01:19:40;;;;;;;7.17;4.37;;;10.60;99.90;;;;;;4992381;28;20914;-73
2022/10/05 01:22:27;;;;;;;8.90;4.17;;;10.60;99.90;;;;;;4992326;28;20404;-73
2022/10/05 01:25:08;;;;;;;5.00;3.93;;;10.60;99.90;;;;;;4992095;28;20400;-73
2022/10/05 01:28:00;;;;;;;12.83;4.40;;;10.50;99.90;;;;;;4992290;28;20510;-74
2022/10/05 01:30:32;;;;;;;10.17;5.00;;;10.60;99.90;;;;;;4991171;28;20419;-74
2022/10/05 01:33:23;;;;;;;6.90;4.00;;;10.60;99.90;;;;;;4992459;28;20491;-74
2022/10/05 01:35:57;;;;;;;6.23;3.67;;;10.60;99.90;;;;;;4992195;28;20968;-74
2022/10/05 01:38:46;;;;;;;6.70;4.70;;;10.50;99.90;;;;;;4992960;28;20403;-74
2022/10/05 01:41:29;;;;;;;6.97;4.67;;;10.50;99.90;;;;;;4992053;28;20456;-75
2022/10/05 01:44:06;;;;;;;11.40;4.37;;;10.50;99.90;;;;;;4992880;28;20799;-75
2022/10/05 01:46:44;;;;;;;6.07;4.07;;;10.40;99.90;;;;;;4990727;28;20435;-74
2022/10/05 01:49:32;;;;;;;6.07;5.00;;;10.40;99.90;;;;;;4992201;28;20412;-74
2022/10/05 01:52:36;;;;;;;9.13;5.60;;;10.40;99.90;;;;;;4992414;28;20761;-74
2022/10/05 01:55:16;;;;;;;5.53;4.37;;;10.40;99.90;;;;;;4992184;28;20444;-74
2022/10/05 01:58:14;;;;;;;8.53;4.67;;;10.40;99.90;;;;;;4992207;28;20443;-75
2022/10/05 02:01:05;;;;;;;9.97;5.77;;;10.50;99.90;;;;;;4993005;28;20466;-74
2022/10/05 02:03:37;;;;;;;9.10;5.10;;;10.50;99.90;;;;;;4996323;28;20408;-73
2022/10/05 02:06:14;;;;;;;7.33;4.80;;;10.50;99.90;;;;;;4995194;28;20408;-73
2022/10/05 02:09:07;;;;;;;7.40;5.03;;;10.50;99.90;;;;;;4995364;28;20408;-73
2022/10/05 02:11:34;;;;;;;9.90;6.17;;;10.50;99.90;;;;;;5010497;28;20432;-73
2022/10/05 02:14:06;;;;;;;13.27;5.37;;;10.50;99.90;;;;;;4995653;28;21042;-76
2022/10/05 02:16:52;;;;;;;11.47;5.03;;;10.50;99.90;;;;;;4996016;28;20822;-74
2022/10/05 02:19:30;;;;;;;6.73;5.10;;;10.50;99.90;;;;;;4996152;28;20499;-76
2022/10/05 02:22:20;;;;;;;10.20;6.00;;;10.60;99.90;;;;;;4994588;28;20510;-73
2022/10/05 02:25:11;;;;;;;8.83;4.60;;;10.60;99.90;;;;;;4994566;28;21137;-73
2022/10/05 02:27:55;;;;;;;12.30;4.80;;;10.70;99.90;;;;;;4994156;28;20809;-73
2022/10/05 02:30:21;;;;;;;9.03;5.13;;;10.60;99.90;;;;;;4995028;28;20514;-73
2022/10/05 02:33:07;;;;;;;12.83;5.77;;;10.60;99.90;;;;;;4993872;28;20510;-74
2022/10/05 02:35:33;;;;;;;11.33;7.27;;;10.60;99.90;;;;;;4994610;28;20181;-74
2022/10/05 02:38:34;;;;;;;6.97;4.70;;;10.60;99.90;;;;;;4995532;28;21047;-74
2022/10/05 02:41:35;;;;;;;9.87;5.50;;;10.70;99.90;;;;;;4995321;28;20564;-74
2022/10/05 02:44:21;;;;;;;8.37;5.00;;;10.70;99.90;;;;;;4995265;28;20762;-74
2022/10/05 02:47:03;;;;;;;8.70;6.10;;;10.70;99.90;;;;;;4994871;28;20980;-73
2022/10/05 02:49:41;;;;;;;7.07;5.30;;;10.70;99.90;;;;;;4994915;28;20428;-75
2022/10/05 02:52:15;;;;;;;11.80;5.63;;;10.80;99.90;;;;;;4993571;28;20439;-74
2022/10/05 02:55:13;;;;;;;10.80;7.10;;;10.80;99.90;;;;;;4994544;28;20412;-75
2022/10/05 02:57:45;;;;;;;9.10;5.53;;;10.80;99.90;;;;;;4994749;28;20514;-74
2022/10/05 03:00:18;;;;;;;7.30;5.50;;;10.80;99.90;;;;;;4994636;28;20864;-73
2022/10/05 03:03:19;;;;;;;8.60;5.70;;;10.80;99.90;;;;;;4994404;28;20408;-73
2022/10/05 03:05:53;;;;;;;10.20;5.60;;;10.80;99.90;;;;;;4992611;28;20423;-74
2022/10/05 03:08:42;;;;;;;6.77;5.80;;;10.90;99.90;;;;;;4994381;28;20474;-73
2022/10/05 03:11:24;;;;;;;10.30;6.07;;;10.90;99.90;;;;;;4994226;28;20906;-74
2022/10/05 03:13:54;;;;;;;12.10;5.40;;;10.90;99.90;;;;;;4993078;28;20426;-73
2022/10/05 03:16:34;;;;;;;9.97;4.70;;;10.90;99.90;;;;;;4993897;28;20928;-73
2022/10/05 03:19:26;;;;;;;7.00;4.60;;;10.90;99.90;;;;;;4994185;28;20427;-73
2022/10/05 03:21:58;;;;;;;9.40;6.60;;;10.90;99.90;;;;;;4994047;28;20506;-73
2022/10/05 03:24:38;;;;;;;8.23;5.30;;;11.00;99.90;;;;;;4993712;28;20409;-74
2022/10/05 03:27:25;;;;;;;8.77;5.77;;;11.00;99.90;;;;;;4994238;28;20427;-75
2022/10/05 03:30:17;;;;;;;6.40;3.90;;;11.10;99.90;;;;;;4994249;28;20400;-74
2022/10/05 03:33:01;;;;;;;9.03;5.20;;;11.10;99.90;;;;;;4992797;28;20427;-74
2022/10/05 03:35:54;;;;;;;9.40;5.63;;;11.10;99.90;;;;;;4993987;28;20454;-74
2022/10/05 03:38:57;;;;;;;8.23;5.30;;;11.10;99.90;;;;;;4993931;28;20411;-74
2022/10/05 03:41:47;;;;;;;9.10;6.83;;;11.10;99.90;;;;;;4993686;28;20458;-74
2022/10/05 03:44:33;;;;;;;7.07;5.23;;;11.10;99.90;;;;;;4993656;28;20400;-73
2022/10/05 03:47:33;;;;;;;7.77;4.77;;;11.10;99.90;;;;;;4993487;28;20423;-73
2022/10/05 03:50:10;;;;;;;9.07;5.50;;;11.10;99.90;;;;;;4993367;28;20455;-73
2022/10/05 03:52:45;;;;;;;7.90;4.90;;;11.10;99.90;;;;;;4993552;28;20401;-73
2022/10/05 03:55:42;;;;;;;7.80;5.60;;;11.10;99.90;;;;;;4993437;28;20426;-75
2022/10/05 03:58:41;;;;;;;8.20;5.20;;;11.10;99.90;;;;;;4993644;28;20419;-74
2022/10/05 04:01:14;;;;;;;6.67;4.63;;;11.00;99.90;;;;;;4992339;28;20455;-75
2022/10/05 04:03:49;;;;;;;7.17;4.87;;;11.00;99.90;;;;;;4993540;28;20812;-74
2022/10/05 04:06:19;;;;;;;15.27;5.80;;;11.00;99.90;;;;;;4993076;28;20801;-75
2022/10/05 04:09:02;;;;;;;8.90;4.60;;;11.00;99.90;;;;;;4993572;28;20412;-74
2022/10/05 04:11:49;;;;;;;13.87;7.87;;;11.10;99.90;;;;;;4993369;28;20392;-75
2022/10/05 04:14:24;;;;;;;7.70;5.77;;;11.20;99.90;;;;;;4993118;28;20404;-76
2022/10/05 04:17:00;;;;;;;11.97;5.90;;;11.20;99.90;;;;;;4993266;28;20427;-75
2022/10/05 04:19:39;;;;;;;7.40;5.23;;;11.20;99.90;;;;;;4993363;28;20465;-74
2022/10/05 04:22:19;;;;;;;8.63;5.80;;;11.20;99.90;;;;;;4993264;28;20444;-75
2022/10/05 04:25:03;;;;;;;8.60;6.00;;;11.20;99.90;;;;;;4991411;28;20408;-74
2022/10/05 04:27:38;;;;;;;9.17;5.60;;;11.20;99.90;;;;;;4993420;28;20423;-75
2022/10/05 04:30:15;;;;;;;12.23;5.63;;;11.30;99.90;;;;;;4993736;28;20438;-75
2022/10/05 04:32:52;;;;;;;8.40;5.60;;;11.40;99.90;;;;;;4993740;28;20408;-76
2022/10/05 04:35:32;;;;;;;12.10;5.40;;;11.40;99.90;;;;;;4992782;28;20411;-75
2022/10/05 04:38:25;;;;;;;7.50;5.63;;;11.40;99.90;;;;;;4993046;28;20451;-74
2022/10/05 04:41:11;;;;;;;10.70;5.90;;;11.40;99.90;;;;;;4992785;28;20455;-74
2022/10/05 04:43:40;;;;;;;9.93;5.00;;;11.50;99.90;;;;;;4993048;28;20403;-74
2022/10/05 04:46:16;;;;;;;10.77;6.10;;;11.50;99.90;;;;;;4992578;28;20448;-75
2022/10/05 04:49:03;;;;;;;7.03;4.63;;;11.60;99.90;;;;;;4991419;28;20943;-76
2022/10/05 04:51:32;;;;;;;10.53;7.20;;;11.60;99.90;;;;;;4993497;28;20416;-75
2022/10/05 04:54:09;;;;;;;7.70;5.73;;;11.70;99.90;;;;;;4992330;28;20408;-75
2022/10/05 04:56:40;;;;;;;7.80;5.30;;;11.70;99.90;;;;;;4992973;28;20771;-74
2022/10/05 04:59:39;;;;;;;9.37;5.00;;;11.80;99.90;;;;;;4992743;28;20495;-74
2022/10/05 05:02:31;;;;;;;6.70;4.67;;;11.80;99.90;;;;;;4992501;28;20452;-75
2022/10/05 05:05:00;;;;;;;11.60;6.93;;;11.90;99.90;;;;;;4992668;28;20474;-75
2022/10/05 05:07:46;;;;;;;9.17;7.00;;;12.00;99.90;;;;;;4992634;28;20419;-74
2022/10/05 05:10:40;;;;;;;8.97;6.43;;;12.00;99.90;;;;;;4992753;28;20529;-74
2022/10/05 05:13:21;;;;;;;8.57;5.40;;;11.90;99.90;;;;;;4992520;28;20426;-75
2022/10/05 05:15:58;;;;;;;6.67;4.90;;;11.80;99.90;;;;;;4992361;28;20411;-74
2022/10/05 05:18:45;;;;;;;7.63;5.17;;;11.70;99.90;;;;;;4991434;28;20546;-74
2022/10/05 05:21:42;;;;;;;6.93;4.33;;;11.60;99.90;;;;;;4992507;28;20451;-75
2022/10/05 05:24:26;;;;;;;5.70;5.00;;;11.50;99.90;;;;;;4992483;28;20850;-74
2022/10/05 05:27:26;;;;;;;5.23;4.43;;;11.40;99.90;;;;;;4992412;28;20423;-74
2022/10/05 05:30:12;;;;;;;7.13;5.13;;;11.30;99.90;;;;;;4993195;28;20399;-74
2022/10/05 05:32:38;;;;;;;9.87;4.43;;;11.30;99.90;;;;;;4993299;28;20946;-75
2022/10/05 05:35:37;;;;;;;6.57;4.87;;;11.30;99.90;;;;;;4992507;28;20408;-74
2022/10/05 05:38:32;;;;;;;4.80;4.30;;;11.30;99.90;;;;;;4997062;28;20191;-75
2022/10/05 05:40:57;;;;;;;9.07;5.87;;;11.30;99.90;;;;;;4996697;28;20447;-74
2022/10/05 05:43:43;;;;;;;6.50;4.73;;;11.40;99.90;;;;;;4995518;28;20427;-75
2022/10/05 05:46:15;;;;;;;6.97;5.23;;;11.40;99.90;;;;;;4996483;28;20327;-75
2022/10/05 05:48:45;;;;;;;6.80;4.70;;;11.50;99.90;;;;;;4996856;28;20424;-74
2022/10/05 05:51:34;;;;;;;9.80;5.47;;;11.60;99.90;;;;;;4996792;28;20423;-75
2022/10/05 05:54:20;;;;;;;8.60;5.57;;;11.70;99.90;;;;;;4995080;28;21004;-73
2022/10/05 05:56:57;;;;;;;9.27;5.67;;;11.70;99.90;;;;;;4995589;28;20435;-73
2022/10/05 05:59:34;;;;;;;8.27;5.70;;;11.70;99.90;;;;;;4995843;28;20909;-75
2022/10/05 06:02:08;;;;;;;6.73;5.40;;;11.70;99.90;;;;;;4994454;28;20944;-74
2022/10/05 06:04:43;;;;;;;6.63;5.20;;;11.80;99.90;;;;;;4995463;28;20404;-73
2022/10/05 06:07:16;;;;;;;4.60;4.13;;;11.90;99.90;;;;;;4995468;28;20921;-74
2022/10/05 06:09:46;;;;;;;11.43;3.80;;;11.90;99.90;;;;;;4996101;28;20495;-74
2022/10/05 06:12:20;;;;;;;13.03;5.07;;;11.90;99.90;;;;;;4995766;28;20491;-74
2022/10/05 06:14:51;;;;;;;7.90;5.60;;;11.90;99.90;;;;;;4995453;28;20960;-74
2022/10/05 06:17:24;;;;;;;6.43;4.93;;;12.00;99.90;;;;;;4995966;28;20925;-75
2022/10/05 06:19:53;;;;;;;10.60;5.33;;;12.10;99.90;;;;;;4995890;28;20415;-75
2022/10/05 06:22:25;;;;;;;9.10;6.00;;;12.30;99.90;;;;;;4995461;28;20436;-73
2022/10/05 06:25:24;;;;;;;9.93;6.50;;;12.30;99.90;;;;;;4994976;28;20409;-73
2022/10/05 06:28:15;;;;;;;7.83;5.33;;;12.40;99.90;;;;;;4995004;28;20420;-73
2022/10/05 06:31:02;;;;;;;9.33;5.73;;;12.50;99.90;;;;;;4995300;28;20860;-73
2022/10/05 06:33:48;;;;;;;10.53;6.73;;;12.60;99.90;;;;;;4995083;28;20420;-74
2022/10/05 06:36:17;;;;;;;10.03;6.33;;;12.70;99.90;;;;;;4994165;28;20424;-74
2022/10/05 06:39:14;;;;;;;8.00;5.27;;;12.90;99.90;;;;;;4994929;28;20447;-75
2022/10/05 06:41:58;;;;;;;9.57;5.77;;;13.00;99.90;;;;;;4994909;28;20499;-73
2022/10/05 06:44:38;;;;;;;12.57;6.47;;;13.20;99.90;;;;;;4994520;28;20400;-74
2022/10/05 06:47:20;;;;;;;8.17;6.17;;;13.30;99.90;;;;;;4994340;28;20924;-74
2022/10/05 06:49:57;;;;;;;12.90;7.37;;;13.40;99.90;;;;;;4994724;28;20501;-73
2022/10/05 06:52:46;;;;;;;7.83;6.30;;;13.50;99.90;;;;;;4993543;28;20936;-74
2022/10/05 06:55:39;;;;;;;15.27;8.00;;;13.70;99.90;;;;;;4994397;28;20478;-74
2022/10/05 06:58:25;;;;;;;7.77;5.20;;;13.80;99.90;;;;;;4994521;28;20805;-74
2022/10/05 07:01:10;;;;;;;7.40;5.50;;;14.00;99.90;;;;;;4994428;28;20490;-75
2022/10/05 07:03:47;;;;;;;11.23;5.23;;;14.10;99.90;;;;;;4994537;28;20405;-74
2022/10/05 07:06:15;;;;;;;7.70;5.67;;;14.20;99.90;;;;;;4994149;28;20416;-73
2022/10/05 07:08:58;;;;;;;8.17;5.27;;;14.30;99.90;;;;;;4994303;28;20415;-73
2022/10/05 07:11:57;;;;;;;6.20;4.67;;;14.30;99.90;;;;;;4994372;28;20407;-75
2022/10/05 07:14:32;;;;;;;11.00;5.80;;;14.40;99.90;;;;;;4993197;28;20424;-75
2022/10/05 07:17:07;;;;;;;8.90;5.20;;;14.50;99.90;;;;;;4994466;28;20463;-76
2022/10/05 07:19:56;;;;;;;5.23;4.47;;;14.50;99.90;;;;;;4994678;28;20411;-75
2022/10/05 07:22:34;;;;;;;6.47;5.37;;;14.60;99.90;;;;;;4994641;28;20452;-74
2022/10/05 07:25:17;;;;;;;10.80;5.37;;;14.70;99.90;;;;;;4993954;28;20400;-75
2022/10/05 07:27:56;;;;;;;11.13;5.40;;;14.80;99.90;;;;;;4993873;28;20416;-75
2022/10/05 07:30:22;;;;;;;7.20;5.03;;;14.80;99.90;;;;;;4993905;28;20404;-74
2022/10/05 07:33:08;;;;;;;8.17;5.33;;;14.80;99.90;;;;;;4993872;28;20808;-74
2022/10/05 07:38:47;;;;;;;7.03;4.97;;;14.80;99.90;;;;;;4993927;28;20391;-74
2022/10/05 07:41:50;;;;;;;4.60;3.80;;;14.80;99.90;;;;;;4992846;28;20466;-75
2022/10/05 07:44:18;;;;;;;4.53;3.57;;;14.80;99.90;;;;;;4992115;28;20466;-73
2022/10/05 07:47:09;;;;;;;4.80;3.70;;;15.00;99.90;;;;;;4993447;28;20428;-73
2022/10/05 07:50:14;;;;;;;6.40;4.10;;;15.00;99.90;;;;;;4993402;28;20424;-72
2022/10/05 07:52:47;;;;;;;7.20;3.80;;;15.00;99.90;;;;;;4992785;28;20950;-73
2022/10/05 07:55:31;;;;;;;7.00;4.30;;;15.00;99.90;;;;;;4993096;28;20405;-73
2022/10/05 07:58:18;;;;;;;4.63;3.30;;;15.10;99.90;;;;;;4992587;28;20436;-73
2022/10/05 08:00:54;;;;;;;5.07;3.47;;;15.10;99.90;;;;;;4993183;28;20451;-73
2022/10/05 08:03:26;;;;;;;4.30;3.80;;;15.10;99.90;;;;;;4993247;28;20894;-73
2022/10/05 08:05:51;;;;;;;7.67;4.20;;;15.20;99.90;;;;;;4992923;28;20400;-73
2022/10/05 08:08:37;;;;;;;3.67;3.27;;;15.20;99.90;;;;;;4993343;28;20806;-74
2022/10/05 08:11:21;;;;;;;5.33;3.60;;;15.30;99.90;;;;;;4991959;28;20173;-73
2022/10/05 08:14:00;;;;;;;5.40;4.27;;;15.30;99.90;;;;;;4993217;28;20412;-74
2022/10/05 08:16:31;;;;;;;13.30;4.30;;;15.40;99.90;;;;;;4992998;28;20439;-74
2022/10/05 08:19:22;;;;;;;4.67;3.77;;;15.40;99.90;;;;;;4993224;28;20443;-74
2022/10/05 08:22:03;;;;;;;6.30;4.00;;;15.50;99.90;;;;;;4993388;28;20467;-75
2022/10/05 08:24:48;;;;;;;6.10;3.80;;;15.60;99.90;;;;;;4991414;28;20470;-74
2022/10/05 08:27:34;;;;;;;4.67;3.50;;;15.70;99.90;;;;;;4993058;28;20420;-74
2022/10/05 08:30:11;;;;;;;9.50;8.50;;;15.90;99.90;;;;;;4991880;28;20981;-73
2022/10/05 08:32:50;;;;;;;9.77;7.80;;;16.10;99.90;;;;;;4991889;28;20821;-74
2022/10/05 08:35:43;;;;;;;6.33;4.00;;;16.20;99.90;;;;;;4991546;28;20427;-73
2022/10/05 08:38:23;;;;;;;5.23;4.40;;;16.50;99.90;;;;;;4992252;28;20436;-73
2022/10/05 08:41:24;;;;;;;8.00;4.47;;;16.70;99.90;;;;;;4992598;28;20478;-75
2022/10/05 08:44:23;;;;;;;5.73;4.63;;;16.80;99.90;;;;;;4992618;28;20399;-75
2022/10/05 08:46:51;;;;;;;5.27;4.27;;;17.10;99.90;;;;;;4993306;28;20451;-75
2022/10/05 08:49:48;;;;;;;6.53;4.87;;;17.30;99.90;;;;;;4993060;28;20423;-75
2022/10/05 08:52:28;;;;;;;5.23;3.87;;;17.40;99.90;;;;;;4991880;28;20439;-76
2022/10/05 08:55:08;;;;;;;6.03;5.07;;;17.50;99.90;;;;;;4992348;28;20439;-75
2022/10/05 08:58:02;;;;;;;5.90;4.10;;;17.60;99.90;;;;;;4990947;28;20436;-74
2022/10/05 09:01:07;;;;;;;5.67;4.37;;;17.60;99.90;;;;;;4992347;28;20825;-73
2022/10/05 09:04:11;;;;;;;9.33;5.37;;;17.70;99.90;;;;;;4992032;28;20507;-74
2022/10/05 09:07:04;;;;;;;5.10;4.60;;;17.70;99.90;;;;;;4989598;28;20440;-74
2022/10/05 09:09:44;;;;;;;4.57;3.40;;;17.60;99.90;;;;;;4991180;28;20773;-73
2022/10/05 09:12:43;;;;;;;4.53;3.80;;;17.80;99.90;;;;;;4995895;28;20408;-73
2022/10/05 09:15:24;;;;;;;5.10;4.40;;;17.90;99.90;;;;;;4996298;28;20804;-74
2022/10/05 09:18:43;;;;;;;7.53;4.30;;;18.00;99.90;;;;;;4996402;28;20929;-74
2022/10/05 09:21:38;;;;;;;5.63;4.13;;;18.20;99.90;;;;;;4993649;28;20497;-72
2022/10/05 09:24:09;;;;;;;5.57;3.57;;;18.40;99.90;;;;;;4996184;28;20771;-72
2022/10/05 09:27:11;;;;;;;4.47;3.40;;;18.60;99.90;;;;;;4995981;28;20512;-72
2022/10/05 09:29:49;;;;;;;4.13;3.73;;;18.80;99.90;;;;;;4995480;28;20421;-72
2022/10/05 09:32:23;;;;;;;7.30;4.17;;;19.10;99.90;;;;;;4995882;28;20494;-71
2022/10/05 09:35:17;;;;;;;8.90;3.80;;;19.20;99.90;;;;;;4995755;28;20411;-72
2022/10/05 09:38:12;;;;;;;4.13;3.70;;;19.40;99.90;;;;;;4995918;28;20416;-72
2022/10/05 09:40:46;;;;;;;6.00;3.77;;;19.60;99.90;;;;;;4994475;28;20451;-72
2022/10/05 09:43:52;;;;;;;5.13;3.83;;;20.30;99.90;;;;;;4995884;28;20398;-72
2022/10/05 09:46:39;;;;;;;8.77;4.63;;;20.70;99.90;;;;;;4994158;28;20470;-72
2022/10/05 09:49:42;;;;;;;4.40;3.33;;;21.20;99.90;;;;;;4995376;28;20991;-72
2022/10/05 09:52:19;;;;;;;4.60;3.50;;;21.60;99.90;;;;;;4994366;28;20955;-72
2022/10/05 09:55:39;;;;;;;4.93;2.70;;;22.20;99.90;;;;;;4995283;28;20743;-72
2022/10/05 09:58:32;;;;;;;3.37;2.93;;;23.20;99.90;;;;;;4993175;28;20538;-72
2022/10/05 10:01:24;;;;;;;5.17;2.60;;;24.00;99.90;;;;;;4995051;28;21062;-72
2022/10/05 10:04:12;;;;;;;2.63;2.07;;;24.40;99.90;;;;;;4995328;28;20778;-72
2022/10/05 10:07:11;;;;;;;6.40;3.60;;;24.50;99.90;;;;;;4995193;28;20420;-72
2022/10/05 10:10:04;;;;;;;2.97;2.63;;;25.00;99.90;;;;;;4995337;28;20431;-73
2022/10/05 10:12:49;;;;;;;3.60;2.03;;;26.90;99.90;;;;;;4995640;28;20388;-74
2022/10/05 10:15:33;;;;;;;2.33;1.80;;;28.90;88.30;;;;;;4995021;28;20392;-72
2022/10/05 10:18:18;;;;;;;2.20;1.87;;;30.30;76.60;;;;;;4993922;28;20902;-72
2022/10/05 10:21:02;;;;;;;4.20;2.20;;;30.20;66.50;;;;;;4994293;28;20543;-73
2022/10/05 10:23:44;;;;;;;2.87;2.00;;;30.60;65.40;;;;;;4995208;28;20427;-74
2022/10/05 10:26:29;;;;;;;2.40;1.80;;;31.50;62.40;;;;;;4994945;28;20419;-73
2022/10/05 10:29:32;;;;;;;2.27;2.00;;;31.50;58.40;;;;;;4995310;28;20424;-74
2022/10/05 10:32:09;;;;;;;2.13;1.93;;;31.20;57.00;;;;;;4995282;28;20406;-74
2022/10/05 10:34:55;;;;;;;2.07;1.77;;;29.90;57.30;;;;;;4994817;28;20495;-73
2022/10/05 10:37:57;;;;;;;1.90;1.73;;;29.10;60.80;;;;;;4994919;28;20420;-74
2022/10/05 10:40:37;;;;;;;1.50;1.40;;;29.60;62.50;;;;;;4994864;28;20451;-72
2022/10/05 10:43:38;;;;;;;2.27;1.60;;;30.20;59.00;;;;;;4995078;28;20763;-73
2022/10/05 10:46:31;;;;;;;1.97;1.60;;;30.50;57.10;;;;;;4994438;28;20408;-73
2022/10/05 10:49:06;;;;;;;2.03;1.80;;;30.10;56.90;;;;;;4994626;28;20400;-73
2022/10/05 10:52:03;;;;;;;2.73;1.60;;;30.90;58.80;;;;;;4994729;28;20748;-74
2022/10/05 10:54:59;;;;;;;5.00;2.10;;;31.30;56.20;;;;;;4994290;28;20419;-73
2022/10/05 10:57:38;;;;;;;2.50;1.70;;;31.50;55.70;;;;;;4994589;28;20439;-74
2022/10/05 11:00:07;;;;;;;1.83;1.73;;;32.50;54.50;;;;;;4994663;28;20778;-73
2022/10/05 11:02:45;;;;;;;2.20;1.60;;;33.50;52.30;;;;;;4994478;28;20400;-73
2022/10/05 11:05:13;;;;;;;1.50;1.40;;;34.50;51.00;;;;;;4994220;28;20400;-73
2022/10/05 11:08:07;;;;;;;3.13;1.57;;;35.40;49.20;;;;;;4994381;28;20841;-72
2022/10/05 11:10:51;;;;;;;1.43;1.33;;;35.80;46.60;;;;;;4994460;28;20778;-73
2022/10/05 11:13:30;;;;;;;1.50;1.40;;;35.40;47.50;;;;;;4994305;28;20467;-73
2022/10/05 11:16:12;;;;;;;1.77;1.30;;;35.40;46.50;;;;;;4994015;28;20462;-72
2022/10/05 11:19:23;;;;;;;4.77;1.90;;;35.10;45.10;;;;;;4994236;28;20400;-72
2022/10/05 11:22:08;;;;;;;1.50;1.40;;;35.10;45.60;;;;;;4992597;28;20530;-74
2022/10/05 11:24:49;;;;;;;1.40;1.30;;;35.70;47.00;;;;;;4993821;28;20802;-73
2022/10/05 11:27:36;;;;;;;2.30;1.53;;;36.80;44.00;;;;;;4994043;28;20398;-72
2022/10/05 11:30:17;;;;;;;1.40;1.30;;;37.80;43.10;;;;;;4994035;28;20780;-73
2022/10/05 11:32:55;;;;;;;1.50;1.40;;;37.10;42.40;;;;;;4992916;28;20917;-73
2022/10/05 11:35:26;;;;;;;1.47;1.37;;;36.10;42.00;;;;;;4993655;28;20374;-72
2022/10/05 11:38:12;;;;;;;1.40;1.20;;;35.90;41.50;;;;;;4993716;28;20468;-73
2022/10/05 11:41:09;;;;;;;1.50;1.30;;;36.10;43.20;;;;;;4993794;28;20553;-73
2022/10/05 11:44:26;;;;;;;1.90;1.50;;;36.10;41.80;;;;;;4993787;28;20396;-73
2022/10/05 11:47:16;;;;;;;2.30;1.43;;;36.10;42.60;;;;;;4991366;28;20439;-73
2022/10/05 11:50:04;;;;;;;1.80;1.37;;;36.20;41.50;;;;;;4991390;28;20959;-73
2022/10/05 11:52:52;;;;;;;1.77;1.30;;;36.20;42.10;;;;;;4993174;28;20439;-73
2022/10/05 11:55:18;;;;;;;3.93;1.27;;;35.50;42.00;;;;;;4993193;28;20387;-74
2022/10/05 11:57:52;;;;;;;1.43;1.30;;;35.30;41.60;;;;;;4993507;28;20430;-73
2022/10/05 12:00:25;;;;;;;1.40;1.10;;;35.40;41.60;;;;;;4993413;28;20168;-74
2022/10/05 12:02:56;;;;;;;1.40;1.20;;;35.80;42.10;;;;;;4993530;28;20839;-73
2022/10/05 12:05:45;;;;;;;1.40;1.30;;;34.90;41.90;;;;;;4993151;28;20407;-73
2022/10/05 12:08:22;;;;;;;1.27;1.10;;;34.10;42.80;;;;;;4993521;28;20424;-73
2022/10/05 12:11:24;;;;;;;1.50;1.37;;;33.70;43.20;;;;;;4993413;28;20392;-74
2022/10/05 12:14:14;;;;;;;2.03;1.40;;;33.50;44.00;;;;;;4992000;28;20423;-73
2022/10/05 12:16:58;;;;;;;1.80;1.37;;;33.60;44.00;;;;;;4992780;28;20440;-73
2022/10/05 12:19:30;;;;;;;1.50;1.40;;;33.40;44.50;;;;;;4993056;28;20408;-73
2022/10/05 12:22:14;;;;;;;1.50;1.30;;;33.90;45.80;;;;;;4993020;28;20506;-73
2022/10/05 12:25:18;;;;;;;2.17;1.83;;;34.50;45.00;;;;;;4993017;28;20877;-74
2022/10/05 12:27:46;;;;;;;1.77;1.67;;;33.30;44.60;;;;;;4993047;28;20419;-72
2022/10/05 12:30:28;;;;;;;2.13;1.87;;;33.10;45.40;;;;;;4992952;28;20476;-72
2022/10/05 12:33:20;;;;;;;1.83;1.40;;;33.20;46.00;;;;;;4992976;28;20419;-71
2022/10/05 12:35:49;;;;;;;1.90;1.30;;;33.20;45.60;;;;;;4992663;28;20450;-72
2022/10/05 12:38:37;;;;;;;1.70;1.33;;;33.30;46.10;;;;;;4992925;28;20403;-73
2022/10/05 12:41:13;;;;;;;2.33;1.40;;;33.50;45.30;;;;;;4991577;28;20460;-71
2022/10/05 12:43:53;;;;;;;2.70;1.53;;;33.70;44.90;;;;;;4992422;28;20407;-72
2022/10/05 12:46:41;;;;;;;1.40;1.30;;;33.50;45.30;;;;;;4992437;28;20511;-72
2022/10/05 12:49:13;;;;;;;3.00;1.50;;;32.70;45.70;;;;;;4992875;28;20914;-72
2022/10/05 12:51:43;;;;;;;2.43;1.67;;;32.40;46.60;;;;;;4992730;28;20408;-72
2022/10/05 12:54:19;;;;;;;1.80;1.33;;;32.10;46.30;;;;;;4992604;28;20496;-72
2022/10/05 12:56:57;;;;;;;1.90;1.50;;;32.10;46.90;;;;;;4992412;28;20427;-73
2022/10/05 13:00:01;;;;;;;14.77;2.10;;;32.10;47.00;;;;;;4992608;28;20535;-73
2022/10/05 13:02:41;;;;;;;1.73;1.50;;;32.50;47.10;;;;;;4991932;28;20431;-72
2022/10/05 13:05:09;;;;;;;1.93;1.40;;;32.50;46.70;;;;;;4992259;28;20496;-73
2022/10/05 13:07:59;;;;;;;2.43;1.40;;;31.90;46.90;;;;;;4991172;28;20456;-74
2022/10/05 13:10:47;;;;;;;1.73;1.30;;;31.70;47.70;;;;;;4992437;28;20411;-73
2022/10/05 13:13:36;;;;;;;1.90;1.50;;;31.50;47.40;;;;;;4991951;28;20439;-73
2022/10/05 13:16:16;;;;;;;2.10;1.37;;;31.20;48.10;;;;;;4992104;28;20407;-73
2022/10/05 13:19:00;;;;;;;1.87;1.60;;;31.50;48.80;;;;;;4991745;28;20419;-74
2022/10/05 13:21:25;;;;;;;3.00;1.57;;;31.60;48.90;;;;;;4992302;28;20542;-74
2022/10/05 13:24:00;;;;;;;4.50;1.40;;;32.50;48.40;;;;;;4992365;28;20515;-74
2022/10/05 13:26:34;;;;;;;2.83;1.50;;;32.80;47.60;;;;;;4992183;28;20207;-72
2022/10/05 13:29:18;;;;;;;1.60;1.40;;;33.00;47.80;;;;;;4992366;28;20405;-71
2022/10/05 13:31:49;;;;;;;1.90;1.70;;;32.80;46.60;;;;;;4992276;28;20408;-72
2022/10/05 13:34:20;;;;;;;2.20;1.53;;;33.00;47.50;;;;;;4992045;28;20416;-72
2022/10/05 13:37:17;;;;;;;7.70;1.40;;;32.70;47.30;;;;;;4992182;28;20451;-71
2022/10/05 13:40:07;;;;;;;2.00;1.70;;;31.90;48.30;;;;;;4992226;28;20466;-73
2022/10/05 13:42:52;;;;;;;10.73;2.47;;;32.00;49.00;;;;;;4992213;28;20771;-71
2022/10/05 13:45:23;;;;;;;1.97;1.80;;;32.00;49.20;;;;;;4991720;28;20451;-72
2022/10/05 13:47:54;;;;;;;1.63;1.53;;;31.40;48.80;;;;;;4992126;28;20416;-72
2022/10/05 13:50:33;;;;;;;2.70;1.63;;;31.40;49.70;;;;;;4991994;28;20853;-71
2022/10/05 13:53:14;;;;;;;5.00;1.93;;;30.90;49.20;;;;;;4992086;28;20431;-72
2022/10/05 13:55:45;;;;;;;1.60;1.30;;;30.40;50.70;;;;;;4991994;28;20479;-72
2022/10/05 13:58:25;;;;;;;7.17;1.60;;;30.50;50.60;;;;;;4995636;28;20416;-71
2022/10/05 14:01:28;;;;;;;2.70;1.37;;;29.90;50.40;;;;;;4995516;28;20447;-72
2022/10/05 14:04:03;;;;;;;4.90;1.37;;;29.90;51.20;;;;;;4995511;28;20402;-71
2022/10/05 14:06:31;;;;;;;4.97;1.43;;;30.20;51.50;;;;;;4995214;28;20422;-71
2022/10/05 14:08:58;;;;;;;5.63;1.60;;;30.20;51.10;;;;;;4995527;28;20929;-71